Plains, Montana
Current Conditions -  °F | °C
As of 5:14 PM on Tuesday 25 Nov 2014 (Local Time) from KMLP Reporting Station
Light Snow Light Snow  
Wind Chill: 27°   Ceiling: 1200
Heat Index: 27°   Visibility: 1.2mi
Dew Point: 24°   Wind: 0mph
Humidity: 89%   Direction: NA
Pressure: 30.09"   Gusts: NA
Location:  47.46°N, 114.88°W
Report Text: KMLP 260014Z AUTO 00000KT 1 1/4SM -SN BR FEW002 OVC012 M03/M04 A3009 RMK AO2 P0001 T10281044
Loading
Personal Weather Stations






























Interactive Weather Map New forecast layout! Learn more

10-Day Weather Forecast

Advertisements
Track Severe Weather on mobile